Time;durP1;ratioP1;P1;durP2;ratioP2;P2;SDS_P1;SDS_P2;PMS_P1;PMS_P2;Temp;Humidity;BMP_temperature;BMP_pressure;BME280_temperature;BME280_humidity;BME280_pressure;Samples;Min_cycle;Max_cycle;Signal;HPM_P1;HPM_P2
2024/02/10 00:01:49;;;;;;;13.10;9.95;;;;;;;11.44;61.46;92462.25;6218966;23;20008;-87
2024/02/10 00:06:45;;;;;;;13.07;9.48;;;;;;;11.49;60.97;92477.13;6223330;22;20039;-87
2024/02/10 00:09:12;;;;;;;11.80;9.93;;;;;;;11.57;60.56;92455.81;6164125;23;20004;-87
2024/02/10 00:11:38;;;;;;;13.07;10.25;;;;;;;11.45;60.75;92458.59;6188301;23;20016;-87
2024/02/10 00:14:14;;;;;;;14.23;10.73;;;;;;;11.54;60.67;92457.09;6139656;23;20066;-86
2024/02/10 00:16:39;;;;;;;15.25;11.13;;;;;;;11.50;60.43;92450.84;6188308;23;20066;-87
2024/02/10 00:19:09;;;;;;;14.40;10.73;;;;;;;11.46;60.41;92441.97;6163080;23;20009;-86
2024/02/10 00:26:37;;;;;;;14.23;9.88;;;;;;;11.67;59.75;92448.09;6160580;23;20033;-87
2024/02/10 00:29:03;;;;;;;14.82;10.98;;;;;;;11.48;60.30;92436.50;6134604;23;20059;-87
2024/02/10 00:31:29;;;;;;;13.88;10.10;;;;;;;11.52;60.25;92438.34;6133860;23;20009;-86
2024/02/10 00:38:56;;;;;;;13.60;10.13;;;;;;;11.51;60.11;92433.41;6212070;23;20024;-87
2024/02/10 00:43:47;;;;;;;14.73;10.38;;;;;;;11.36;60.35;92415.88;6184551;23;20080;-86
2024/02/10 00:46:15;;;;;;;12.68;9.57;;;;;;;11.29;60.62;92428.31;6163559;23;20016;-87
2024/02/10 00:48:43;;;;;;;15.80;11.00;;;;;;;11.42;59.95;92421.88;6213191;23;20010;-87
2024/02/10 00:51:09;;;;;;;13.50;10.45;;;;;;;11.58;59.60;92410.53;6212830;23;20012;-87
2024/02/10 00:56:00;;;;;;;14.98;10.63;;;;;;;11.17;61.05;92410.28;6195107;23;20024;-88
2024/02/10 00:58:26;;;;;;;17.02;10.75;;;;;;;11.21;60.95;92403.53;6187839;23;20017;-86
2024/02/10 01:00:51;;;;;;;16.70;11.45;;;;;;;11.02;61.24;92400.53;6187850;23;20039;-87
2024/02/10 01:03:17;;;;;;;14.77;11.02;;;;;;;10.87;62.06;92403.84;6163586;23;20058;-86
2024/02/10 01:05:42;;;;;;;14.20;10.63;;;;;;;10.85;62.30;92407.69;6187348;23;20032;-87
2024/02/10 01:15:44;;;;;;;18.00;11.90;;;;;;;11.13;60.97;92383.97;6213808;23;20029;-86
2024/02/10 01:18:12;;;;;;;17.42;12.15;;;;;;;11.09;61.37;92382.91;6138998;23;20108;-87
2024/02/10 01:20:38;;;;;;;18.15;12.57;;;;;;;11.12;61.11;92361.63;6187456;23;20070;-86
2024/02/10 01:23:03;;;;;;;17.20;11.20;;;;;;;11.28;60.35;92354.66;6163302;23;20080;-86
2024/02/10 01:25:30;;;;;;;19.00;12.80;;;;;;;11.09;61.30;92362.09;6187452;23;20077;-86
2024/02/10 01:27:55;;;;;;;16.23;11.30;;;;;;;11.31;60.48;92351.56;6187414;23;20008;-86
2024/02/10 01:30:26;;;;;;;15.55;11.13;;;;;;;11.34;60.11;92352.88;6162522;23;20016;-86
2024/02/10 01:32:53;;;;;;;;;;;;;;;11.03;61.24;92359.72;6163825;23;20012;-87
2024/02/10 01:35:18;;;;;;;18.23;11.40;;;;;;;11.09;60.66;92336.09;6163101;23;19912;-86
2024/02/10 01:40:11;;;;;;;17.00;11.60;;;;;;;11.18;60.76;92344.22;6187175;23;20025;-86
2024/02/10 01:42:37;;;;;;;14.82;10.68;;;;;;;11.33;60.38;92346.13;6138719;23;20016;-86
2024/02/10 01:45:08;;;;;;;15.52;10.60;;;;;;;11.32;60.28;92340.13;6212612;23;20001;-86
2024/02/10 01:47:37;;;;;;;16.20;10.88;;;;;;;11.27;60.33;92332.31;6187836;23;20087;-87
2024/02/10 01:50:07;;;;;;;15.73;10.73;;;;;;;11.35;59.83;92321.41;6212710;23;20004;-86
2024/02/10 01:52:35;;;;;;;16.80;11.23;;;;;;;11.35;60.10;92315.44;6184496;23;20016;-87
2024/02/10 01:55:01;;;;;;;16.35;10.98;;;;;;;11.10;60.70;92305.66;6187469;23;20036;-87
2024/02/10 01:57:27;;;;;;;18.15;11.70;;;;;;;11.28;59.89;92301.84;6213061;23;20008;-87
2024/02/10 01:59:53;;;;;;;14.55;10.65;;;;;;;11.28;59.79;92307.84;6162889;23;20075;-87
2024/02/10 02:02:19;;;;;;;15.27;10.07;;;;;;;11.17;60.45;92306.22;6187340;23;20023;-87
2024/02/10 02:04:44;;;;;;;13.88;10.13;;;;;;;11.10;60.25;92285.66;6187379;23;20012;-86
2024/02/10 02:09:45;;;;;;;16.27;11.40;;;;;;;11.02;60.32;92290.53;6200229;23;20024;-87
2024/02/10 02:12:13;;;;;;;15.73;11.85;;;;;;;10.85;60.92;92304.50;6187616;23;20066;-86
2024/02/10 02:14:46;;;;;;;18.45;11.27;;;;;;;11.11;60.09;92295.00;6164905;23;20100;-86
2024/02/10 02:17:12;;;;;;;18.35;11.82;;;;;;;11.00;60.15;92288.19;6168320;23;20017;-87
2024/02/10 02:19:40;;;;;;;16.40;10.40;;;;;;;11.02;59.80;92275.72;6164427;23;20028;-87
2024/02/10 02:22:03;;;;;;;16.02;10.68;;;;;;;10.90;60.49;92282.94;6187899;23;20037;-87
2024/02/10 02:24:31;;;;;;;16.90;10.05;;;;;;;10.34;61.90;92275.53;6164476;23;20020;-87
2024/02/10 02:26:57;;;;;;;11.50;8.88;;;;;;;9.94;63.41;92281.94;6189245;23;20004;-87
2024/02/10 02:29:23;;;;;;;11.55;7.65;;;;;;;9.44;65.46;92281.13;6189296;23;20058;-87
2024/02/10 02:31:51;;;;;;;13.70;10.07;;;;;;;9.86;63.69;92269.38;6164970;23;20024;-87
2024/02/10 02:34:20;;;;;;;14.98;10.95;;;;;;;10.30;62.17;92257.06;6164903;23;20066;-88
2024/02/10 02:36:47;;;;;;;17.05;11.77;;;;;;;9.81;62.92;92257.13;6189988;23;20008;-88
2024/02/10 02:39:13;;;;;;;17.35;12.05;;;;;;;10.07;62.56;92250.38;6189700;23;20019;-87
2024/02/10 02:41:41;;;;;;;19.20;12.07;;;;;;;9.78;62.73;92235.03;6164477;23;20024;-88
2024/02/10 02:44:14;;;;;;;17.73;11.60;;;;;;;10.11;62.29;92228.06;6164449;23;20055;-87
2024/02/10 02:46:43;;;;;;;15.38;11.18;;;;;;;10.24;62.11;92231.25;6222594;23;20012;-86
2024/02/10 02:51:35;;;;;;;13.95;9.55;;;;;;;10.08;62.37;92220.75;6214773;23;20024;-87
2024/02/10 02:54:08;;;;;;;13.48;9.70;;;;;;;10.07;62.15;92215.81;6164723;23;20008;-87
2024/02/10 02:56:34;;;;;;;12.30;9.27;;;;;;;10.10;62.30;92221.28;6164337;23;20012;-87
2024/02/10 02:59:00;;;;;;;12.70;9.52;;;;;;;9.74;63.43;92222.81;6175210;23;20023;-87
2024/02/10 03:01:25;;;;;;;12.73;8.65;;;;;;;10.00;62.22;92197.84;6164583;23;20060;-87
2024/02/10 03:03:51;;;;;;;10.70;8.40;;;;;;;9.29;64.22;92193.59;6164075;23;20155;-87
2024/02/10 03:06:18;;;;;;;13.63;7.82;;;;;;;9.31;64.56;92214.88;6164774;23;20023;-87
2024/02/10 03:11:09;;;;;;;11.30;8.13;;;;;;;9.61;63.50;92208.41;6212213;23;20028;-88
2024/02/10 03:13:38;;;;;;;10.43;7.95;;;;;;;9.78;62.59;92209.06;6164040;23;20066;-87
2024/02/10 03:16:04;;;;;;;11.00;8.45;;;;;;;9.74;62.66;92189.84;6164355;23;20036;-88
2024/02/10 03:18:33;;;;;;;11.68;8.85;;;;;;;9.82;62.35;92204.19;6163987;23;20063;-87
2024/02/10 03:20:59;;;;;;;12.02;8.60;;;;;;;9.72;62.32;92219.66;6163867;23;20008;-87
2024/02/10 03:23:24;;;;;;;10.40;8.00;;;;;;;9.87;62.34;92209.41;6188711;23;20016;-87
2024/02/10 03:25:50;;;;;;;10.93;7.88;;;;;;;9.95;61.65;92210.78;6188730;23;20009;-87
2024/02/10 03:28:15;;;;;;;11.85;7.63;;;;;;;10.22;60.35;92202.16;6164553;23;20009;-87
2024/02/10 03:30:41;;;;;;;12.20;8.65;;;;;;;10.30;60.39;92209.47;6164156;23;20008;-87
2024/02/10 03:33:06;;;;;;;11.55;8.80;;;;;;;10.25;61.08;92214.66;6184608;23;20020;-87
2024/02/10 03:35:32;;;;;;;12.70;8.73;;;;;;;10.09;61.50;92205.94;6218935;23;20039;-87
2024/02/10 03:38:00;;;;;;;11.82;8.10;;;;;;;10.31;61.08;92222.25;6218699;23;20016;-87
2024/02/10 03:40:26;;;;;;;12.57;8.65;;;;;;;10.35;60.95;92214.75;6244093;23;20000;-87
2024/02/10 03:48:05;;;;;;;12.27;8.40;;;;;;;10.48;60.63;92206.50;6160856;23;20021;-87
2024/02/10 03:50:31;;;;;;;11.40;7.93;;;;;;;10.53;60.62;92206.56;6159107;23;20043;-86
2024/02/10 03:52:57;;;;;;;11.80;8.30;;;;;;;10.46;60.70;92203.38;6134600;23;20043;-87
2024/02/10 03:55:29;;;;;;;10.18;7.68;;;;;;;10.53;60.73;92214.34;6134180;23;20028;-87
2024/02/10 03:57:56;;;;;;;10.13;7.68;;;;;;;10.48;60.70;92206.50;6158754;23;20004;-87
2024/02/10 04:00:26;;;;;;;11.07;7.82;;;;;;;10.68;60.19;92218.88;6134181;23;20022;-86
2024/02/10 04:05:20;;;;;;;9.50;7.30;;;;;;;10.36;61.17;92206.72;6161322;23;20020;-87
2024/02/10 04:07:52;;;;;;;11.57;8.00;;;;;;;10.44;60.79;92200.25;6133995;23;20075;-86
2024/02/10 04:10:21;;;;;;;12.23;7.30;;;;;;;10.58;60.06;92205.78;6183693;23;20040;-86
2024/02/10 04:12:46;;;;;;;11.55;7.93;;;;;;;10.79;59.56;92201.47;6133862;23;20036;-87
2024/02/10 04:20:14;;;;;;;10.25;6.78;;;;;;;11.06;58.43;92216.16;6184302;23;20025;-87
2024/02/10 04:22:45;;;;;;;11.40;7.60;;;;;;;10.90;59.09;92221.31;6134092;23;20013;-87
2024/02/10 04:25:12;;;;;;;8.98;6.70;;;;;;;10.36;60.72;92218.91;6134865;23;20089;-87
2024/02/10 04:27:38;;;;;;;10.52;6.82;;;;;;;10.47;60.81;92212.75;6110481;23;20068;-87
2024/02/10 04:30:06;;;;;;;10.57;7.38;;;;;;;10.68;59.51;92207.66;6153489;23;20001;-87
2024/02/10 04:32:32;;;;;;;10.02;7.13;;;;;;;10.66;59.49;92207.13;6170349;23;20012;-87
2024/02/10 04:34:58;;;;;;;9.63;6.80;;;;;;;10.49;60.11;92208.09;6156952;23;20009;-86
2024/02/10 04:42:24;;;;;;;11.50;7.85;;;;;;;10.64;59.81;92209.22;6213801;23;20021;-86
2024/02/10 04:44:51;;;;;;;10.30;7.38;;;;;;;10.75;59.39;92219.41;6139219;23;20011;-87
2024/02/10 04:47:16;;;;;;;11.02;7.40;;;;;;;10.61;59.36;92214.91;6188035;23;20005;-86
2024/02/10 04:57:28;;;;;;;8.15;6.40;;;;;;;10.39;59.43;92208.00;6183986;23;20036;-87
2024/02/10 04:59:58;;;;;;;8.27;6.30;;;;;;;10.35;60.39;92209.56;6135892;23;20001;-87
2024/02/10 05:02:23;;;;;;;8.15;6.90;;;;;;;9.83;61.38;92194.59;6158919;23;20029;-87
2024/02/10 05:04:51;;;;;;;11.95;7.28;;;;;;;9.80;62.30;92193.25;6176103;23;20027;-87
2024/02/10 05:07:19;;;;;;;11.93;7.57;;;;;;;9.87;61.76;92216.44;6183160;23;20009;-87
2024/02/10 05:09:45;;;;;;;8.88;6.88;;;;;;;9.98;61.93;92199.91;6209054;23;20009;-87
2024/02/10 05:12:10;;;;;;;9.27;6.70;;;;;;;9.84;61.88;92196.16;6158446;23;20016;-86
2024/02/10 05:14:36;;;;;;;10.60;7.45;;;;;;;9.30;63.50;92200.31;6208059;23;20016;-87
2024/02/10 05:17:02;;;;;;;10.00;6.93;;;;;;;9.89;62.01;92196.19;6208041;23;20068;-87
2024/02/10 05:24:30;;;;;;;9.38;6.78;;;;;;;9.65;62.60;92180.94;6242176;22;20020;-86
2024/02/10 05:26:56;;;;;;;10.73;7.15;;;;;;;10.09;61.57;92185.19;6193910;23;20034;-87
2024/02/10 05:29:21;;;;;;;9.32;6.57;;;;;;;10.08;61.72;92181.81;6242679;23;20027;-87
2024/02/10 05:34:22;;;;;;;10.02;6.90;;;;;;;9.46;63.38;92169.34;6196760;23;20024;-87
2024/02/10 05:36:48;;;;;;;9.40;7.20;;;;;;;8.76;65.88;92162.16;6188444;23;20001;-86
2024/02/10 05:39:14;;;;;;;10.10;6.55;;;;;;;9.33;64.12;92137.59;6187843;23;20040;-87
2024/02/10 05:49:21;;;;;;;9.82;5.82;;;;;;;10.32;61.07;92134.72;6213441;23;20016;-87
2024/02/10 05:51:50;;;;;;;9.95;5.70;;;;;;;10.61;59.80;92140.31;6188711;23;20009;-88
2024/02/10 05:54:18;;;;;;;9.57;6.35;;;;;;;10.62;59.75;92136.69;6163405;23;20031;-88
2024/02/10 05:56:44;;;;;;;10.70;6.85;;;;;;;10.86;59.07;92139.66;6162981;23;20009;-87
2024/02/10 05:59:12;;;;;;;9.63;6.40;;;;;;;10.88;59.17;92153.16;6187507;23;20071;-87
2024/02/10 06:01:37;;;;;;;8.98;6.65;;;;;;;10.92;58.63;92140.44;6212649;23;20006;-87
2024/02/10 06:04:09;;;;;;;10.75;7.20;;;;;;;10.59;59.34;92124.22;6137960;23;20028;-87
2024/02/10 06:06:40;;;;;;;11.00;7.68;;;;;;;10.44;61.01;92131.94;6163829;23;20087;-88
2024/02/10 06:11:41;;;;;;;7.95;5.60;;;;;;;10.82;59.15;92114.41;6189172;23;20016;-86
2024/02/10 06:14:09;;;;;;;6.75;4.55;;;;;;;10.51;59.40;92117.69;6217526;23;20014;-87
2024/02/10 06:19:00;;;;;;;6.65;4.80;;;;;;;10.30;60.26;92105.56;6211029;23;20027;-86
2024/02/10 06:21:28;;;;;;;5.70;4.28;;;;;;;9.84;61.66;92100.88;6244802;23;20012;-86
2024/02/10 06:23:53;;;;;;;9.55;4.95;;;;;;;9.96;61.45;92105.91;6163198;23;20087;-87
2024/02/10 06:26:19;;;;;;;5.63;4.18;;;;;;;10.09;60.69;92117.66;6187668;23;20039;-87
2024/02/10 06:31:20;;;;;;;4.78;3.65;;;;;;;10.99;58.31;92111.63;6129542;23;20034;-87
2024/02/10 06:33:50;;;;;;;6.07;4.30;;;;;;;11.34;56.69;92108.28;6103551;23;20021;-87
2024/02/10 06:36:16;;;;;;;6.22;4.68;;;;;;;11.50;56.73;92104.69;6128297;23;20104;-87
2024/02/10 06:38:42;;;;;;;6.13;4.53;;;;;;;11.33;56.66;92089.31;6127387;23;20017;-88
2024/02/10 06:46:08;;;;;;;7.07;5.30;;;;;;;10.85;58.00;92096.50;6205038;22;20009;-87
2024/02/10 06:48:40;;;;;;;9.38;5.70;;;;;;;10.93;57.66;92093.38;6192031;23;20021;-86
2024/02/10 06:56:06;;;;;;;5.78;4.95;;;;;;;11.14;56.94;92098.66;6183553;23;20025;-88
2024/02/10 06:58:31;;;;;;;5.80;4.63;;;;;;;11.34;56.50;92103.88;6157904;23;20013;-87
2024/02/10 07:00:58;;;;;;;5.60;4.68;;;;;;;11.11;57.52;92104.34;6159332;23;20172;-87
2024/02/10 07:05:52;;;;;;;5.63;4.07;;;;;;;10.95;58.22;92109.53;6230634;22;20024;-86
2024/02/10 07:08:18;;;;;;;8.95;5.40;;;;;;;10.81;58.44;92105.81;6220053;23;20039;-87
2024/02/10 07:10:48;;;;;;;6.90;4.75;;;;;;;10.04;60.74;92115.06;6194094;23;20008;-87
2024/02/10 07:13:16;;;;;;;6.37;4.37;;;;;;;10.28;59.93;92111.03;6244823;23;20079;-87
2024/02/10 07:15:41;;;;;;;6.30;4.70;;;;;;;10.43;59.93;92115.53;6170286;23;20269;-87
2024/02/10 07:18:09;;;;;;;6.78;4.55;;;;;;;10.37;59.54;92106.94;6218559;23;20106;-87
2024/02/10 07:23:03;;;;;;;6.50;3.72;;;;;;;10.75;58.31;92119.84;6185119;23;20021;-87
2024/02/10 07:25:30;;;;;;;5.45;3.85;;;;;;;10.96;58.35;92131.88;6214660;23;20011;-86
2024/02/10 07:30:22;;;;;;;7.95;5.65;;;;;;;10.98;58.23;92120.44;6205039;23;20060;-87
2024/02/10 07:32:48;;;;;;;11.15;6.13;;;;;;;11.08;57.93;92117.84;6163988;23;20016;-87
2024/02/10 07:40:15;;;;;;;6.10;4.10;;;;;;;11.63;56.15;92134.63;6223462;22;20039;-86
2024/02/10 07:42:41;;;;;;;6.05;3.92;;;;;;;11.77;55.42;92139.31;6219093;23;20040;-87
2024/02/10 07:45:07;;;;;;;5.95;3.92;;;;;;;11.49;55.66;92130.97;6218925;23;20106;-87
2024/02/10 07:47:32;;;;;;;6.05;3.80;;;;;;;11.42;55.57;92125.22;6193863;23;20031;-86
2024/02/10 07:49:59;;;;;;;6.82;3.70;;;;;;;11.13;56.69;92131.66;6219462;23;20000;-87
2024/02/10 07:52:31;;;;;;;5.47;3.70;;;;;;;11.33;56.38;92136.13;6188121;23;20020;-87
2024/02/10 07:54:57;;;;;;;4.93;3.65;;;;;;;11.38;56.31;92129.38;6188828;23;20015;-87
2024/02/10 07:57:23;;;;;;;4.45;3.40;;;;;;;11.31;56.45;92116.63;6197230;23;20040;-86
2024/02/10 07:59:53;;;;;;;4.65;3.60;;;;;;;11.46;56.17;92121.84;6188864;23;20066;-87
2024/02/10 08:02:23;;;;;;;5.28;3.75;;;;;;;11.55;55.84;92116.91;6188580;23;20011;-87
2024/02/10 08:07:29;;;;;;;4.00;3.10;;;;;;;11.24;56.54;92126.50;6183863;23;20024;-87
2024/02/10 08:09:55;;;;;;;4.28;3.40;;;;;;;11.34;56.49;92124.69;6188187;23;20011;-86
2024/02/10 08:12:23;;;;;;;4.82;3.50;;;;;;;11.00;57.36;92115.75;6188333;23;20032;-86
2024/02/10 08:14:51;;;;;;;5.85;3.90;;;;;;;11.23;56.39;92112.72;6188728;23;20008;-88
2024/02/10 08:17:21;;;;;;;5.10;3.50;;;;;;;11.25;56.56;92126.25;6187807;23;20217;-87
2024/02/10 08:19:47;;;;;;;5.67;3.83;;;;;;;11.53;55.91;92129.41;6187999;23;20008;-87
2024/02/10 08:22:13;;;;;;;5.43;4.15;;;;;;;11.12;56.77;92124.13;6188512;23;20013;-87
2024/02/10 08:24:39;;;;;;;7.07;3.83;;;;;;;11.31;56.12;92120.00;6164012;23;20013;-86
2024/02/10 08:27:08;;;;;;;5.07;3.95;;;;;;;11.42;56.07;92114.81;6213589;23;20005;-87
2024/02/10 08:29:34;;;;;;;6.20;4.07;;;;;;;11.45;56.02;92109.09;6164371;23;20005;-88
2024/02/10 08:32:03;;;;;;;5.88;4.10;;;;;;;11.45;55.81;92109.88;6163794;23;20302;-88
2024/02/10 08:34:35;;;;;;;5.82;4.10;;;;;;;11.42;55.71;92114.81;6188815;23;20008;-87
2024/02/10 08:37:02;;;;;;;6.00;4.50;;;;;;;11.51;55.35;92118.47;6188013;23;20016;-87
2024/02/10 08:41:52;;;;;;;5.40;4.53;;;;;;;11.66;55.07;92099.47;6212484;23;20020;-86
2024/02/10 08:44:19;;;;;;;5.90;4.50;;;;;;;11.53;55.85;92098.16;6188075;23;20248;-87
2024/02/10 08:46:45;;;;;;;7.20;4.72;;;;;;;11.67;55.38;92098.41;6163870;23;20012;-87
2024/02/10 08:49:14;;;;;;;6.93;4.88;;;;;;;11.72;55.03;92094.00;6188541;23;20015;-87
2024/02/10 08:51:49;;;;;;;6.90;5.15;;;;;;;11.87;55.00;92097.66;6164330;23;20000;-87
2024/02/10 08:56:43;;;;;;;7.45;5.03;;;;;;;11.43;55.78;92095.56;6211778;23;20036;-87
2024/02/10 08:59:12;;;;;;;7.05;4.78;;;;;;;11.19;56.97;92085.63;6188374;23;20005;-87
2024/02/10 09:06:43;;;;;;;5.88;4.70;;;;;;;11.90;55.36;92074.50;6213537;23;20028;-87
2024/02/10 09:09:10;;;;;;;6.95;4.43;;;;;;;11.93;55.18;92057.56;6187944;23;20031;-87
2024/02/10 09:14:11;;;;;;;5.90;4.38;;;;;;;12.07;54.93;92048.16;6244072;22;20078;-86
2024/02/10 09:16:36;;;;;;;6.28;4.15;;;;;;;11.90;55.07;92037.25;6192726;23;20012;-87
2024/02/10 09:19:02;;;;;;;6.00;4.07;;;;;;;11.93;54.86;92036.72;6192363;23;20008;-86
2024/02/10 09:29:13;;;;;;;5.07;3.80;;;;;;;13.21;51.49;92014.50;6206211;23;20024;-85
2024/02/10 09:31:44;;;;;;;4.07;3.40;;;;;;;12.93;51.74;92005.56;6217353;23;20100;-86
2024/02/10 09:34:12;;;;;;;4.55;3.42;;;;;;;13.59;51.00;92001.72;6192635;23;20008;-87
2024/02/10 09:36:42;;;;;;;4.93;3.47;;;;;;;13.07;51.72;91990.88;6218109;23;20018;-87
2024/02/10 09:44:20;;;;;;;6.22;4.82;;;;;;;14.39;52.75;91998.56;6183913;22;20021;-87
2024/02/10 09:46:50;;;;;;;7.57;5.43;;;;;;;15.23;51.41;91984.09;6157827;23;20005;-87
2024/02/10 10:14:57;;;;;;;12.40;8.45;;;;;;;15.50;51.55;91987.88;6184688;23;20016;-87
2024/02/10 10:17:36;;;;;;;8.00;7.10;;;;;;;15.58;50.11;91969.66;6211900;23;20030;-86
2024/02/10 10:20:04;;;;;;;7.20;5.50;;;;;;;15.88;49.00;91966.81;6216406;23;20078;-86
2024/02/10 10:22:36;;;;;;;5.40;4.30;;;;;;;16.09;47.82;91959.34;6216996;23;20000;-86
2024/02/10 10:25:05;;;;;;;8.02;6.25;;;;;;;16.29;50.26;91971.31;6242126;23;20000;-87
2024/02/10 10:40:18;;;;;;;9.50;7.57;;;;;;;15.93;49.21;91975.38;6242215;22;20031;-86
2024/02/10 10:42:47;;;;;;;11.13;7.93;;;;;;;15.55;50.57;91959.75;6218897;23;20086;-87
2024/02/10 10:45:14;;;;;;;9.82;8.27;;;;;;;15.28;52.06;91963.09;6218503;23;20022;-85
2024/02/10 10:47:45;;;;;;;11.65;8.65;;;;;;;15.31;52.11;91959.13;6194025;23;20015;-87
2024/02/10 11:23:30;;;;;;;10.60;9.30;;;;;;;15.69;51.75;91914.47;6217942;22;20020;-87
2024/02/10 11:31:09;;;;;;;11.20;9.00;;;;;;;15.74;52.24;91893.44;6189042;23;20051;-87
2024/02/10 11:33:35;;;;;;;12.02;9.95;;;;;;;15.32;52.41;91884.75;6163982;23;20017;-85
2024/02/10 11:36:00;;;;;;;11.77;9.82;;;;;;;15.28;53.28;91874.06;6188281;23;20031;-87
2024/02/10 11:38:27;;;;;;;12.95;10.57;;;;;;;15.52;52.64;91881.78;6188370;23;20005;-88
2024/02/10 12:01:16;;;;;;;15.13;12.63;;;;;;;15.84;54.16;91833.00;6206354;23;20063;-86
2024/02/10 12:06:09;;;;;;;12.55;10.40;;;;;;;15.85;53.24;91824.06;6185680;23;20013;-87
2024/02/10 12:19:30;;;;;;;15.98;12.02;;;;;;;15.72;53.05;91816.97;6215546;22;20024;-87
2024/02/10 12:21:57;;;;;;;19.55;14.05;;;;;;;15.70;52.65;91813.84;6157725;23;20143;-87
2024/02/10 12:32:05;;;;;;;16.15;13.05;;;;;;;15.35;53.12;91797.75;6198884;23;20020;-86
2024/02/10 12:34:30;;;;;;;18.43;13.43;;;;;;;15.34;53.14;91815.28;6212386;23;20001;-86
2024/02/10 12:36:56;;;;;;;17.90;13.43;;;;;;;15.02;53.78;91810.88;6162780;23;20015;-87
2024/02/10 12:39:21;;;;;;;16.05;13.15;;;;;;;14.90;54.36;91794.88;6212373;23;20075;-87
2024/02/10 12:49:25;;;;;;;17.02;13.27;;;;;;;14.93;53.74;91799.56;6186367;23;20040;-86
2024/02/10 13:07:26;;;;;;;18.65;14.23;;;;;;;13.76;57.70;91753.94;6211744;23;20044;-87
2024/02/10 13:09:52;;;;;;;19.77;14.60;;;;;;;14.05;56.44;91753.81;6187842;23;20031;-87
2024/02/10 13:20:37;;;;;;;22.00;17.80;;;;;;;14.26;54.98;91737.84;6209318;23;20035;-89
2024/02/10 13:23:03;;;;;;;22.40;15.50;;;;;;;14.27;55.50;91747.22;6183881;23;20021;-87
2024/02/10 13:27:55;;;;;;;21.27;16.35;;;;;;;14.01;55.46;91746.81;6243788;22;20024;-87
2024/02/10 13:30:22;;;;;;;20.90;16.38;;;;;;;14.01;56.18;91752.03;6227689;23;20025;-87
2024/02/10 13:32:49;;;;;;;22.10;15.88;;;;;;;13.86;56.17;91732.16;6218023;23;20003;-87
2024/02/10 14:01:18;;;;;;;23.88;16.95;;;;;;;13.60;57.31;91716.06;6214270;23;20016;-87
2024/02/10 14:06:32;;;;;;;21.38;15.80;;;;;;;12.88;59.36;91728.06;6167841;23;20035;-88
2024/02/10 14:09:00;;;;;;;22.38;16.25;;;;;;;12.91;60.21;91713.72;6187596;23;20016;-86
2024/02/10 14:16:33;;;;;;;21.00;14.55;;;;;;;13.36;58.01;91726.53;6188629;23;20024;-87
2024/02/10 14:19:07;;;;;;;17.70;13.68;;;;;;;13.56;57.13;91712.44;6211393;23;20087;-87
2024/02/10 14:21:38;;;;;;;19.58;13.70;;;;;;;13.81;56.45;91727.75;6186889;23;20005;-87
2024/02/10 14:24:05;;;;;;;18.35;13.70;;;;;;;13.81;56.80;91722.53;6186917;23;20008;-88
2024/02/10 14:28:57;;;;;;;21.73;15.30;;;;;;;13.88;56.75;91714.38;6212814;22;20024;-87
2024/02/10 14:31:23;;;;;;;20.50;15.25;;;;;;;13.88;56.74;91722.19;6162684;23;20258;-88
2024/02/10 14:36:27;;;;;;;20.27;14.45;;;;;;;13.81;56.40;91737.44;6211334;23;20025;-87
2024/02/10 14:41:21;;;;;;;17.55;13.93;;;;;;;13.76;56.89;91737.50;6194890;23;20085;-87
2024/02/10 14:43:47;;;;;;;17.58;13.55;;;;;;;13.62;57.11;91727.75;6162934;23;20078;-88
2024/02/10 14:56:33;;;;;;;22.35;15.40;;;;;;;13.56;56.84;91747.16;6159291;23;20025;-87
2024/02/10 14:58:59;;;;;;;21.80;14.90;;;;;;;13.50;56.60;91761.34;6186186;23;20020;-87
2024/02/10 15:01:25;;;;;;;18.73;15.05;;;;;;;12.60;59.17;91754.94;6187324;23;20008;-87
2024/02/10 15:03:50;;;;;;;21.40;15.75;;;;;;;12.98;58.47;91770.75;6212593;23;20004;-88
2024/02/10 15:06:23;;;;;;;18.98;15.35;;;;;;;13.03;57.67;91760.28;6187534;23;20012;-88
2024/02/10 15:08:50;;;;;;;21.52;16.05;;;;;;;12.50;59.63;91761.81;6188953;23;20061;-88
2024/02/10 15:11:18;;;;;;;20.95;15.18;;;;;;;12.75;58.89;91761.84;6138094;23;20011;-87
2024/02/10 15:13:44;;;;;;;22.63;15.13;;;;;;;12.94;58.53;91773.13;6187120;23;20008;-87
2024/02/10 15:16:20;;;;;;;26.02;16.58;;;;;;;13.16;57.99;91775.28;6211862;23;20005;-87
2024/02/10 15:28:56;;;;;;;23.75;16.40;;;;;;;12.68;59.48;91777.84;6214258;23;20021;-87
2024/02/10 15:31:24;;;;;;;22.77;16.58;;;;;;;12.90;58.94;91767.69;6188636;23;20015;-87
2024/02/10 15:37:40;;;;;;;20.52;15.25;;;;;;;12.86;59.48;91774.50;6215065;23;20025;-87
2024/02/10 15:40:20;;;;;;;40.80;22.92;;;;;;;12.90;59.32;91766.91;6158661;23;20021;-87
2024/02/10 15:42:47;;;;;;;;;;;;;;;12.69;59.82;91781.97;6136852;23;20013;-87
2024/02/10 15:47:49;;;;;;;13.45;10.27;;;;;;;12.47;57.45;91775.41;6187419;23;20009;-87
2024/02/10 16:11:15;;;;;;;16.08;11.65;;;;;;;12.73;57.75;91775.16;6234244;23;20016;-86
2024/02/10 16:13:44;;;;;;;11.77;9.48;;;;;;;12.91;56.20;91784.91;6218223;23;20143;-86
2024/02/10 16:16:15;;;;;;;22.05;14.77;;;;;;;13.09;56.97;91796.47;6192997;23;20012;-87
2024/02/10 16:18:41;;;;;;;26.42;17.05;;;;;;;12.77;58.53;91785.81;6217055;23;20058;-86
2024/02/10 16:21:07;;;;;;;23.20;16.83;;;;;;;12.71;59.00;91785.88;6192849;23;20015;-86
2024/02/10 16:23:32;;;;;;;28.02;18.20;;;;;;;12.07;61.05;91781.66;6218283;23;20070;-86
2024/02/10 16:25:58;;;;;;;15.80;11.93;;;;;;;11.87;60.48;91777.34;6192795;23;20074;-87
2024/02/10 16:28:24;;;;;;;15.02;10.40;;;;;;;12.40;58.27;91785.34;6168790;23;20031;-87
2024/02/10 16:33:16;;;;;;;10.82;8.80;;;;;;;12.84;56.07;91768.81;6243789;23;20111;-87
2024/02/10 16:35:41;;;;;;;9.48;7.40;;;;;;;13.07;54.08;91782.16;6217764;23;20091;-87
2024/02/10 16:43:17;;;;;;;5.75;4.20;;;;;;;13.22;50.76;91768.94;6184144;23;20036;-87
2024/02/10 16:45:43;;;;;;;4.18;3.22;;;;;;;13.09;47.64;91774.81;6133950;23;20009;-87
2024/02/10 16:50:45;;;;;;;4.03;3.30;;;;;;;13.45;46.84;91774.44;6191839;23;20021;-87
2024/02/10 16:53:13;;;;;;;5.15;3.50;;;;;;;13.74;48.06;91784.03;6243299;23;20008;-86
2024/02/10 16:55:42;;;;;;;10.80;5.05;;;;;;;13.76;49.77;91787.91;6192991;23;20018;-87
2024/02/10 16:58:08;;;;;;;9.05;5.65;;;;;;;13.92;50.61;91790.31;6217877;23;20075;-87
2024/02/10 17:05:40;;;;;;;16.48;11.05;;;;;;;13.57;53.75;91813.97;6154171;23;20122;-85
2024/02/10 17:08:07;;;;;;;15.70;11.20;;;;;;;13.44;54.54;91817.25;6128454;23;20014;-87
2024/02/10 17:15:39;;;;;;;12.93;9.82;;;;;;;13.56;53.70;91824.72;6153842;23;20080;-87
2024/02/10 17:29:39;;;;;;;12.52;7.65;;;;;;;13.19;52.85;91839.94;6181736;23;20033;-86
2024/02/10 17:32:04;;;;;;;10.63;8.55;;;;;;;13.24;53.33;91839.88;6108614;23;20021;-87
2024/02/10 18:07:50;;;;;;;14.25;10.48;;;;;;;13.08;54.72;91867.19;6238898;22;20024;-87
2024/02/10 18:10:16;;;;;;;12.65;9.77;;;;;;;12.88;55.08;91878.56;6187595;23;20091;-86
2024/02/10 18:20:28;;;;;;;12.90;9.93;;;;;;;12.78;54.97;91887.25;6241066;23;20024;-87
2024/02/10 18:22:57;;;;;;;14.35;10.02;;;;;;;12.70;55.60;91890.47;6217329;23;20007;-87
2024/02/10 18:25:24;;;;;;;12.98;9.82;;;;;;;12.95;55.09;91896.53;6217754;23;19999;-87
2024/02/10 18:27:53;;;;;;;14.05;10.38;;;;;;;12.70;55.86;91909.47;6192917;23;20012;-88
2024/02/10 18:30:20;;;;;;;12.50;9.68;;;;;;;12.63;55.80;91909.00;6217334;23;20008;-87
2024/02/10 18:32:47;;;;;;;12.40;9.57;;;;;;;12.72;55.84;91927.47;6217039;23;20008;-86
2024/02/10 18:35:25;;;;;;;15.40;10.63;;;;;;;12.78;55.66;91926.38;6192132;23;20016;-88
2024/02/10 18:38:01;;;;;;;15.45;11.85;;;;;;;12.62;56.54;91932.72;6217114;23;20000;-87
2024/02/10 18:40:29;;;;;;;17.10;11.57;;;;;;;12.43;56.93;91932.56;6217415;23;20008;-88
2024/02/10 18:47:59;;;;;;;19.30;13.90;;;;;;;12.59;57.50;91946.31;6241556;23;20024;-88
2024/02/10 18:50:24;;;;;;;17.48;13.68;;;;;;;12.43;58.01;91945.59;6217267;23;20028;-87
2024/02/10 18:52:50;;;;;;;20.23;15.65;;;;;;;12.57;57.93;91951.03;6217082;23;20027;-88
2024/02/10 18:55:18;;;;;;;20.30;16.17;;;;;;;12.32;59.37;91956.09;6218706;23;20022;-87
2024/02/10 18:57:44;;;;;;;19.48;15.45;;;;;;;12.73;57.82;91968.13;6194773;23;20016;-87
2024/02/10 19:07:50;;;;;;;20.55;15.95;;;;;;;11.99;60.26;91982.78;6214386;23;20028;-88